28 minutes ago
Runway Headwind Crosswind Length
8/26 2 kt 8 kt 2,822 ft
METAR EHLW 202125Z AUTO 01009KT 340V050 //// // OVC013 15/11 Q1010 RE//

METAR definition | Embed

METAR Ameland Airport Ballum

Ameland Airport Ballum is a small airport in Ameland, The Netherlands. The airport has one runway: 8/26 (2,822 ft)

Ameland Airport Ballum didn't publish observations recently. Instead, we show you the report of Leeuwarden AB which is 16 mi away. This report was made on June 20, 2021 11:25 pm, local time.

Airport observations

The wind is from direction north (010°) with a speed of 9 kt. The wind direction varies between northnorthwest (340°) and northeast (050°).

The temperature and wind chill are 59 °F. The dew point is 52 °F, the relative humidity is 77%. The air pressure at sea level is 29.83 inHg (QNH).

Daylight period

Today the sun rises at 5:08 am and sets at 10:09 pm. This applies to Ameland Airport Ballum, the universal daylight period may be different. The difference between the local time and UTC is +2 hour. Daylight saving time is currently in progress.

Historical data

Donate

Will you help us to keep Metar-Taf.com running?
Your contribution helps further development of the site and to pay for the expenses.

No more ads

Are you donating $ 5 or more? Then we'll never show you ads again, as a token of our eternal gratitude!
Log in before you donate

Do you want the flying weather of Ameland Airport Ballum on your website? Read more   Free!